Ladysmith, WI

2:24 AM CST on November 18, 2019 (GMT -0600)
Rusk County

Weather History for KRCX - October, 2019

Change the Weather History Date:

Wednesday, October 23, 2019

  Actual Average (WUND) Record (WUND)
Temperature  
Mean Temperature 38 °F -  
Max Temperature 42 °F - - (-1)
Min Temperature 34 °F - - (-1)
Degree Days  
Heating Degree Days 27    
Moisture  
Dew Point 34 °F    
Average Humidity 83    
Maximum Humidity 93    
Minimum Humidity 69    
Precipitation  
Precipitation 0.00 in - - ()
Sea Level Pressure  
Sea Level Pressure 29.83 in    
Wind  
Wind Speed 10 mph (West)    
Max Wind Speed 13 mph    
Max Gust Speed 23 mph    
Visibility 10 miles    
Events Rain    
Averages and records for this station are not official NWS values.
T = Trace of Precipitation, MM = Missing Value Source: NWS Daily Summary

Daily Weather History Graph

Daily Weather History Graph

Search for Another Location

Airport or City:

Astronomy

Oct. 23, 2019 Rise Set
Actual Time 7:30 AM CDT 6:05 PM CDT
Civil Twilight 7:00 AM CDT 6:35 PM CDT
Nautical Twilight 6:25 AM CDT 7:09 PM CDT
Astronomical Twilight 5:51 AM CDT 7:44 PM CDT
Moon 1:27 AM CDT (10/23) 4:15 PM CDT (10/23)
Length of Visible Light 11h 34m
Length of Day
10h 34m
Waning Crescent, 26% of the Moon is Illuminated
Oct 23
Waning Crescent
Oct 27
New
Nov 4
First Quarter
Nov 12
Full
Nov 19
Last Quarter

Hourly Weather History & Observations

Time (CDT) Temp. Windchill Dew Point Humidity Pressure Visibility Wind Dir Wind Speed Gust Speed Precip Events Conditions
12:55 AM 38.8 °F 31.2 °F 36.5 °F 91% 29.61 in 10.0 mi West 12.7 mph - N/A   Overcast
1:15 AM 38.7 °F 31.4 °F 36.5 °F 92% 29.62 in 10.0 mi West 11.5 mph 18.4 mph N/A   Overcast
1:35 AM 38.7 °F 31.4 °F 36.5 °F 92% 29.63 in 10.0 mi West 11.5 mph 16.1 mph N/A   Overcast
1:55 AM 38.8 °F 31.6 °F 35.8 °F 89% 29.64 in 10.0 mi West 11.5 mph 23.0 mph N/A   Overcast
2:15 AM 38.8 °F 31.2 °F 35.6 °F 88% 29.64 in 10.0 mi West 12.7 mph 17.3 mph N/A   Overcast
2:35 AM 39.2 °F 32.0 °F 35.6 °F 87% 29.65 in 10.0 mi WSW 11.5 mph - N/A   Overcast
2:55 AM 38.7 °F 32.9 °F 35.6 °F 89% 29.64 in 10.0 mi West 8.1 mph - N/A   Overcast
3:15 AM 38.7 °F 31.8 °F 35.6 °F 89% 29.65 in 10.0 mi West 10.4 mph 17.3 mph N/A   Overcast
3:35 AM 38.3 °F 31.4 °F 35.6 °F 90% 29.66 in 10.0 mi WSW 10.4 mph 16.1 mph N/A   Overcast
3:55 AM 38.3 °F 30.5 °F 35.8 °F 91% 29.66 in 10.0 mi West 12.7 mph 16.1 mph N/A   Light Drizzle
4:15 AM 37.9 °F 30.9 °F 36.0 °F 93% 29.66 in 10.0 mi West 10.4 mph - N/A   Overcast
4:35 AM 37.9 °F 32.1 °F 35.8 °F 92% 29.68 in 10.0 mi West 8.1 mph 17.3 mph N/A   Overcast
4:55 AM 37.9 °F 30.9 °F 36.0 °F 93% 29.69 in 10.0 mi West 10.4 mph - N/A   Overcast
5:15 AM 37.8 °F 32.5 °F 36.0 °F 93% 29.70 in 10.0 mi WSW 6.9 mph - N/A   Overcast
5:35 AM 37.9 °F 32.1 °F 35.8 °F 92% 29.71 in 10.0 mi West 8.1 mph - N/A   Overcast
5:55 AM 37.8 °F 30.7 °F 35.6 °F 92% 29.72 in 10.0 mi WSW 10.4 mph - N/A   Overcast
6:15 AM 37.8 °F 30.7 °F 34.9 °F 89% 29.72 in 10.0 mi WSW 10.4 mph 16.1 mph N/A   Overcast
6:35 AM 37.8 °F 29.8 °F 34.5 °F 88% 29.73 in 10.0 mi West 12.7 mph 20.7 mph N/A   Overcast
6:55 AM 37.6 °F 30.5 °F 35.4 °F 92% 29.73 in 10.0 mi West 10.4 mph - N/A Rain Light Rain
7:15 AM 37.0 °F 31.0 °F 35.1 °F 93% 29.73 in 10.0 mi West 8.1 mph - N/A   Mostly Cloudy
7:35 AM 37.4 °F 32.1 °F 34.9 °F 91% 29.73 in 10.0 mi WSW 6.9 mph - N/A   Mostly Cloudy
7:55 AM 36.5 °F 31.0 °F 34.7 °F 93% 29.75 in 10.0 mi WSW 6.9 mph - N/A   Mostly Cloudy
8:15 AM 37.4 °F 32.8 °F 34.9 °F 91% 29.76 in 10.0 mi WSW 5.8 mph - N/A   Mostly Cloudy
8:35 AM 37.8 °F 30.7 °F 35.1 °F 90% 29.77 in 10.0 mi WSW 10.4 mph - N/A   Overcast
9:15 AM 38.5 °F 32.7 °F 35.1 °F 87% 29.79 in 10.0 mi West 8.1 mph - N/A   Overcast
9:35 AM 39.0 °F 32.8 °F 35.2 °F 86% 29.80 in 10.0 mi West 9.2 mph - N/A   Mostly Cloudy
9:55 AM 39.4 °F 32.3 °F 34.5 °F 83% 29.81 in 10.0 mi West 11.5 mph - N/A   Overcast
10:15 AM 40.1 °F 33.6 °F 34.5 °F 80% 29.81 in 10.0 mi West 10.4 mph - N/A   Overcast
10:35 AM 39.6 °F 33.5 °F 33.8 °F 80% 29.81 in 10.0 mi West 9.2 mph - N/A   Overcast
10:55 AM 40.8 °F 34.5 °F 32.9 °F 73% 29.81 in 10.0 mi West 10.4 mph - N/A   Overcast
11:15 AM 40.5 °F 34.1 °F 32.7 °F 74% 29.83 in 10.0 mi West 10.4 mph - N/A   Overcast
11:35 AM 40.5 °F 34.1 °F 32.7 °F 74% 29.83 in 10.0 mi West 10.4 mph - N/A   Overcast
11:55 AM 40.5 °F 34.1 °F 32.5 °F 73% 29.84 in 10.0 mi WSW 10.4 mph - N/A   Overcast
12:15 PM 40.5 °F 35.1 °F 32.7 °F 74% 29.85 in 10.0 mi WSW 8.1 mph - N/A   Overcast
12:35 PM 40.6 °F 34.8 °F 33.1 °F 74% 29.86 in 10.0 mi WSW 9.2 mph - N/A   Overcast
1:15 PM 41.4 °F 36.8 °F 33.8 °F 74% 29.86 in 10.0 mi West 6.9 mph - N/A   Overcast
1:35 PM 41.4 °F 35.2 °F 34.3 °F 76% 29.86 in 10.0 mi West 10.4 mph - N/A   Overcast
1:55 PM 42.3 °F 36.3 °F 34.0 °F 72% 29.86 in 10.0 mi West 10.4 mph - N/A   Overcast
2:15 PM 42.4 °F 36.5 °F 33.4 °F 70% 29.86 in 10.0 mi West 10.4 mph - N/A   Overcast
2:35 PM 42.4 °F 37.0 °F 33.1 °F 69% 29.86 in 10.0 mi West 9.2 mph - N/A   Overcast
2:55 PM 42.8 °F 37.0 °F 33.1 °F 69% 29.88 in 10.0 mi West 10.4 mph - N/A   Overcast
3:15 PM 42.4 °F 37.0 °F 33.4 °F 70% 29.88 in 10.0 mi West 9.2 mph - N/A   Overcast
3:35 PM 42.4 °F 35.7 °F 33.3 °F 70% 29.89 in 10.0 mi West 12.7 mph - N/A   Overcast
3:55 PM 42.1 °F 37.1 °F 32.9 °F 70% 29.90 in 10.0 mi West 8.1 mph - N/A   Overcast
4:15 PM 42.4 °F 39.6 °F 33.1 °F 69% 29.90 in 10.0 mi WNW 4.6 mph - N/A   Overcast
4:35 PM 42.6 °F 39.0 °F 33.3 °F 69% 29.91 in 10.0 mi West 5.8 mph - N/A   Overcast
4:55 PM 42.4 °F 37.5 °F 33.4 °F 70% 29.91 in 10.0 mi WNW 8.1 mph - N/A   Overcast
5:15 PM 42.3 °F 36.3 °F 33.4 °F 71% 29.93 in 10.0 mi WNW 10.4 mph - N/A   Overcast
5:35 PM 41.4 °F 35.7 °F 33.8 °F 74% 29.94 in 10.0 mi WNW 9.2 mph 17.3 mph N/A   Overcast
5:55 PM 41.0 °F 37.1 °F 33.3 °F 74% 29.94 in 10.0 mi WNW 5.8 mph - N/A   Mostly Cloudy
6:15 PM 40.3 °F 38.2 °F 33.4 °F 77% 29.95 in 10.0 mi West 3.5 mph - N/A   Mostly Cloudy
6:35 PM 40.3 °F 38.2 °F 33.1 °F 75% 29.96 in 10.0 mi WSW 3.5 mph - N/A   Scattered Clouds
6:55 PM 39.2 °F 37.0 °F 33.1 °F 79% 29.97 in 10.0 mi WSW 3.5 mph - N/A   Clear
7:15 PM 38.8 °F 35.4 °F 32.9 °F 79% 29.98 in 10.0 mi WSW 4.6 mph - N/A   Clear
7:55 PM 38.3 °F 35.9 °F 33.1 °F 81% 30.00 in 10.0 mi West 3.5 mph - N/A   Clear
8:15 PM 37.8 °F 34.2 °F 33.1 °F 83% 30.00 in 10.0 mi West 4.6 mph - N/A   Clear
8:35 PM 37.4 °F 32.1 °F 33.1 °F 84% 30.01 in 10.0 mi West 6.9 mph - N/A   Clear
9:15 PM 36.9 °F 32.2 °F 33.1 °F 86% 30.03 in 10.0 mi West 5.8 mph - N/A   Clear
9:35 PM 36.5 °F 31.8 °F 32.9 °F 87% 30.03 in 10.0 mi West 5.8 mph - N/A   Clear
10:15 PM 36.9 °F 30.7 °F 33.1 °F 86% 30.04 in 10.0 mi WNW 8.1 mph - N/A   Scattered Clouds
10:35 PM 36.7 °F 30.5 °F 32.7 °F 86% 30.05 in 10.0 mi WNW 8.1 mph - N/A   Scattered Clouds
11:15 PM 35.1 °F 30.1 °F 32.7 °F 91% 30.06 in 10.0 mi West 5.8 mph - N/A   Scattered Clouds
11:35 PM 34.5 °F 29.4 °F 32.0 °F 90% 30.06 in 10.0 mi West 5.8 mph - N/A   Scattered Clouds
11:55 PM 34.2 °F 30.0 °F 32.2 °F 92% 30.07 in 10.0 mi WNW 4.6 mph - N/A   Scattered Clouds